Time,TemperatureF,DewpointF,PressureIn,WindDirection,WindDirectionDegrees,WindSpeedMPH,WindSpeedGustMPH,Humidity,HourlyPrecipIn,Conditions,Clouds,dailyrainin,SoftwareType,DateUTC
2013-02-10 00:02:00,23.5,17.8,29.66,NNE,30,1.0,3.0,78,0.00,,,0.00,meteohub,2013-02-10 07:02:00,
2013-02-10 00:07:00,23.2,17.6,29.66,NNE,30,2.0,3.0,79,0.00,,,0.00,meteohub,2013-02-10 07:07:00,
2013-02-10 00:12:00,23.0,17.4,29.66,NNE,30,2.0,3.0,79,0.00,,,0.00,meteohub,2013-02-10 07:12:00,
2013-02-10 00:17:00,22.8,17.2,29.66,NNE,30,1.0,3.0,79,0.00,,,0.00,meteohub,2013-02-10 07:17:00,
2013-02-10 00:22:00,22.6,17.4,29.66,NE,35,2.0,3.0,80,0.00,,,0.00,meteohub,2013-02-10 07:22:00,
2013-02-10 00:27:00,22.5,17.2,29.67,NE,37,1.0,3.0,80,0.00,,,0.00,meteohub,2013-02-10 07:27:00,
2013-02-10 00:32:00,22.3,17.1,29.66,NE,37,0.0,3.0,80,0.00,,,0.00,meteohub,2013-02-10 07:32:00,
2013-02-10 00:37:00,22.1,16.9,29.67,NE,37,1.0,3.0,80,0.00,,,0.00,meteohub,2013-02-10 07:37:00,
2013-02-10 00:42:00,21.7,16.5,29.67,NE,37,2.0,2.0,80,0.00,,,0.00,meteohub,2013-02-10 07:42:00,
2013-02-10 00:47:00,21.6,16.7,29.67,NE,37,1.0,3.0,81,0.00,,,0.00,meteohub,2013-02-10 07:47:00,
2013-02-10 00:52:00,21.4,16.5,29.68,NE,37,0.0,3.0,81,0.00,,,0.00,meteohub,2013-02-10 07:52:00,
2013-02-10 00:57:00,21.0,16.2,29.68,NE,37,1.0,3.0,81,0.00,,,0.00,meteohub,2013-02-10 07:57:00,
2013-02-10 01:02:00,20.8,16.0,29.68,NE,37,0.0,2.0,81,0.00,,,0.00,meteohub,2013-02-10 08:02:00,
2013-02-10 01:07:00,20.7,15.8,29.68,NE,37,1.0,2.0,81,0.00,,,0.00,meteohub,2013-02-10 08:07:00,
2013-02-10 01:12:00,20.5,15.8,29.68,NE,37,1.0,2.0,82,0.00,,,0.00,meteohub,2013-02-10 08:12:00,
2013-02-10 01:17:00,20.3,15.6,29.68,NE,37,0.0,2.0,82,0.00,,,0.00,meteohub,2013-02-10 08:17:00,
2013-02-10 01:22:00,20.1,15.4,29.68,NE,37,0.0,2.0,82,0.00,,,0.00,meteohub,2013-02-10 08:22:00,
2013-02-10 01:27:00,19.9,15.3,29.68,NE,37,0.0,2.0,82,0.00,,,0.00,meteohub,2013-02-10 08:27:00,
2013-02-10 01:32:00,19.9,15.3,29.68,WNW,291,2.0,4.0,82,0.00,,,0.00,meteohub,2013-02-10 08:32:00,
2013-02-10 01:37:00,19.8,15.4,29.68,WNW,291,1.0,6.0,83,0.00,,,0.00,meteohub,2013-02-10 08:37:00,
2013-02-10 01:42:00,19.8,15.4,29.68,WNW,291,1.0,6.0,83,0.00,,,0.00,meteohub,2013-02-10 08:42:00,
2013-02-10 01:47:00,19.8,15.4,29.68,WNW,291,0.0,6.0,83,0.00,,,0.00,meteohub,2013-02-10 08:47:00,
2013-02-10 01:52:00,19.8,15.4,29.68,WNW,290,1.0,3.0,83,0.00,,,0.00,meteohub,2013-02-10 08:52:00,
2013-02-10 01:57:00,19.6,15.3,29.68,WNW,290,0.0,4.0,83,0.00,,,0.00,meteohub,2013-02-10 08:57:00,
2013-02-10 02:02:00,19.6,15.3,29.68,WNW,290,1.0,4.0,83,0.00,,,0.00,meteohub,2013-02-10 09:02:00,
2013-02-10 02:07:00,19.6,15.3,29.68,WNW,290,0.0,2.0,83,0.00,,,0.00,meteohub,2013-02-10 09:07:00,
2013-02-10 02:12:00,19.6,15.3,29.69,WNW,290,3.0,3.0,83,0.00,,,0.00,meteohub,2013-02-10 09:12:00,
2013-02-10 02:17:00,19.8,15.8,29.68,WNW,290,2.0,3.0,84,0.00,,,0.00,meteohub,2013-02-10 09:17:00,
2013-02-10 02:22:00,19.8,15.4,29.69,WSW,244,3.0,7.0,83,0.00,,,0.00,meteohub,2013-02-10 09:22:00,
2013-02-10 02:27:00,19.8,15.4,29.69,WSW,244,2.0,7.0,83,0.00,,,0.00,meteohub,2013-02-10 09:27:00,
2013-02-10 02:32:00,19.9,15.6,29.69,WSW,241,2.0,7.0,83,0.00,,,0.00,meteohub,2013-02-10 09:32:00,
2013-02-10 02:37:00,19.9,16.0,29.69,WSW,241,0.0,5.0,84,0.00,,,0.00,meteohub,2013-02-10 09:37:00,
2013-02-10 02:42:00,20.1,16.0,29.69,WSW,241,1.0,5.0,84,0.00,,,0.00,meteohub,2013-02-10 09:42:00,
2013-02-10 02:47:00,20.3,16.2,29.69,WSW,241,0.0,4.0,84,0.00,,,0.00,meteohub,2013-02-10 09:47:00,
2013-02-10 02:52:00,20.5,16.3,29.69,WSW,241,0.0,4.0,84,0.00,,,0.00,meteohub,2013-02-10 09:52:00,
2013-02-10 02:57:00,20.5,16.3,29.69,WSW,241,1.0,4.0,84,0.00,,,0.00,meteohub,2013-02-10 09:57:00,
2013-02-10 03:02:00,20.5,16.2,29.69,WSW,241,0.0,3.0,83,0.00,,,0.00,meteohub,2013-02-10 10:02:00,
2013-02-10 03:07:00,20.7,16.3,29.69,WSW,241,0.0,2.0,83,0.00,,,0.00,meteohub,2013-02-10 10:07:00,
2013-02-10 03:12:00,20.5,16.2,29.69,WSW,241,0.0,3.0,83,0.00,,,0.00,meteohub,2013-02-10 10:12:00,
2013-02-10 03:17:00,20.5,16.2,29.69,WSW,241,2.0,3.0,83,0.00,,,0.00,meteohub,2013-02-10 10:17:00,
2013-02-10 03:22:00,20.7,16.3,29.69,WSW,241,0.0,3.0,83,0.00,,,0.00,meteohub,2013-02-10 10:22:00,
2013-02-10 03:27:00,20.7,16.3,29.70,WSW,241,1.0,3.0,83,0.00,,,0.00,meteohub,2013-02-10 10:27:00,
2013-02-10 03:32:00,20.7,16.3,29.70,WSW,241,0.0,3.0,83,0.00,,,0.00,meteohub,2013-02-10 10:32:00,
2013-02-10 03:37:00,20.8,16.7,29.70,WSW,241,0.0,3.0,84,0.00,,,0.00,meteohub,2013-02-10 10:37:00,
2013-02-10 03:42:00,20.8,16.7,29.70,WSW,241,1.0,2.0,84,0.00,,,0.00,meteohub,2013-02-10 10:42:00,
2013-02-10 03:47:00,20.8,16.7,29.70,WSW,241,1.0,2.0,84,0.00,,,0.00,meteohub,2013-02-10 10:47:00,
2013-02-10 03:52:00,21.0,16.9,29.70,WSW,241,2.0,2.0,84,0.00,,,0.00,meteohub,2013-02-10 10:52:00,
2013-02-10 03:57:00,21.0,16.9,29.71,WSW,241,1.0,2.0,84,0.00,,,0.00,meteohub,2013-02-10 10:57:00,
2013-02-10 04:02:00,21.0,16.9,29.71,WSW,241,1.0,3.0,84,0.00,,,0.00,meteohub,2013-02-10 11:02:00,
2013-02-10 04:07:00,21.0,16.9,29.71,WSW,241,0.0,3.0,84,0.00,,,0.00,meteohub,2013-02-10 11:07:00,
2013-02-10 04:12:00,21.0,16.9,29.72,WSW,241,0.0,2.0,84,0.00,,,0.00,meteohub,2013-02-10 11:12:00,
2013-02-10 04:17:00,21.0,16.9,29.72,WSW,241,3.0,3.0,84,0.00,,,0.00,meteohub,2013-02-10 11:17:00,
2013-02-10 04:22:00,21.4,17.2,29.72,WSW,241,2.0,3.0,84,0.00,,,0.00,meteohub,2013-02-10 11:22:00,
2013-02-10 04:27:00,21.4,17.1,29.73,WSW,241,1.0,3.0,83,0.00,,,0.00,meteohub,2013-02-10 11:27:00,
2013-02-10 04:32:00,21.4,17.1,29.74,WSW,241,1.0,3.0,83,0.00,,,0.00,meteohub,2013-02-10 11:32:00,
2013-02-10 04:37:00,21.4,17.1,29.74,WSW,241,0.0,3.0,83,0.00,,,0.00,meteohub,2013-02-10 11:37:00,
2013-02-10 04:42:00,21.4,16.7,29.75,WSW,241,0.0,2.0,82,0.00,,,0.00,meteohub,2013-02-10 11:42:00,
2013-02-10 04:47:00,21.4,16.7,29.75,WSW,241,2.0,2.0,82,0.00,,,0.00,meteohub,2013-02-10 11:47:00,
2013-02-10 04:52:00,21.4,16.7,29.75,WSW,241,2.0,3.0,82,0.00,,,0.00,meteohub,2013-02-10 11:52:00,
2013-02-10 04:57:00,21.4,16.7,29.75,WSW,241,3.0,4.0,82,0.00,,,0.00,meteohub,2013-02-10 11:57:00,
2013-02-10 05:02:00,21.6,16.9,29.75,WSW,241,1.0,4.0,82,0.00,,,0.00,meteohub,2013-02-10 12:02:00,
2013-02-10 05:07:00,21.7,17.1,29.75,WSW,241,2.0,4.0,82,0.00,,,0.00,meteohub,2013-02-10 12:07:00,
2013-02-10 05:12:00,21.7,17.1,29.76,WSW,241,1.0,4.0,82,0.00,,,0.00,meteohub,2013-02-10 12:12:00,
2013-02-10 05:17:00,21.7,16.9,29.76,WSW,241,0.0,3.0,81,0.00,,,0.00,meteohub,2013-02-10 12:17:00,
2013-02-10 05:22:00,21.7,16.9,29.76,WSW,241,1.0,3.0,81,0.00,,,0.00,meteohub,2013-02-10 12:22:00,
2013-02-10 05:27:00,21.7,16.9,29.77,WSW,241,4.0,4.0,81,0.00,,,0.00,meteohub,2013-02-10 12:27:00,
2013-02-10 05:32:00,21.9,17.1,29.76,WSW,241,2.0,4.0,81,0.00,,,0.00,meteohub,2013-02-10 12:32:00,
2013-02-10 05:37:00,22.1,17.2,29.77,WSW,241,2.0,4.0,81,0.00,,,0.00,meteohub,2013-02-10 12:37:00,
2013-02-10 05:42:00,22.1,16.9,29.78,WSW,241,0.0,4.0,80,0.00,,,0.00,meteohub,2013-02-10 12:42:00,
2013-02-10 05:47:00,22.3,17.1,29.77,WSW,241,2.0,4.0,80,0.00,,,0.00,meteohub,2013-02-10 12:47:00,
2013-02-10 05:52:00,22.3,17.1,29.78,WSW,241,2.0,4.0,80,0.00,,,0.00,meteohub,2013-02-10 12:52:00,
2013-02-10 05:57:00,22.5,17.2,29.78,WSW,241,1.0,4.0,80,0.00,,,0.00,meteohub,2013-02-10 12:57:00,
2013-02-10 06:02:00,22.5,16.9,29.78,WSW,241,3.0,4.0,79,0.00,,,0.00,meteohub,2013-02-10 13:02:00,
2013-02-10 06:07:00,22.5,16.9,29.78,WSW,241,1.0,4.0,79,0.00,,,0.00,meteohub,2013-02-10 13:07:00,
2013-02-10 06:12:00,22.6,17.1,29.78,WSW,241,2.0,4.0,79,0.00,,,0.00,meteohub,2013-02-10 13:12:00,
2013-02-10 06:17:00,22.8,17.2,29.79,WSW,241,1.0,4.0,79,0.00,,,0.00,meteohub,2013-02-10 13:17:00,
2013-02-10 06:22:00,22.8,17.1,29.79,WSW,241,1.0,3.0,78,0.00,,,0.00,meteohub,2013-02-10 13:22:00,
2013-02-10 06:27:00,23.0,17.2,29.79,WSW,241,1.0,3.0,78,0.00,,,0.00,meteohub,2013-02-10 13:27:00,
2013-02-10 06:32:00,23.2,17.4,29.79,WSW,241,0.0,3.0,78,0.00,,,0.00,meteohub,2013-02-10 13:32:00,
2013-02-10 06:37:00,23.2,17.4,29.79,WSW,241,0.0,3.0,78,0.00,,,0.00,meteohub,2013-02-10 13:37:00,
2013-02-10 06:42:00,23.4,17.2,29.80,WSW,241,0.0,2.0,77,0.00,,,0.00,meteohub,2013-02-10 13:42:00,
2013-02-10 06:47:00,23.4,17.2,29.80,WSW,241,0.0,1.0,77,0.00,,,0.00,meteohub,2013-02-10 13:47:00,
2013-02-10 06:52:00,23.4,17.2,29.81,WSW,241,0.0,2.0,77,0.00,,,0.00,meteohub,2013-02-10 13:52:00,
2013-02-10 06:57:00,23.4,17.2,29.81,WSW,241,0.0,3.0,77,0.00,,,0.00,meteohub,2013-02-10 13:57:00,
2013-02-10 07:02:00,23.5,17.8,29.81,WSW,241,1.0,3.0,78,0.00,,,0.00,meteohub,2013-02-10 14:02:00,
2013-02-10 07:07:00,23.7,18.0,29.82,East,87,2.0,3.0,78,0.00,,,0.00,meteohub,2013-02-10 14:07:00,
2013-02-10 07:12:00,23.7,17.6,29.83,NE,46,2.0,5.0,77,0.00,,,0.00,meteohub,2013-02-10 14:12:00,
2013-02-10 07:22:00,23.9,17.1,29.83,NE,51,1.0,5.0,75,0.00,,,0.00,meteohub,2013-02-10 14:22:00,
2013-02-10 07:27:00,24.3,17.2,29.83,NE,51,1.0,4.0,74,0.00,,,0.00,meteohub,2013-02-10 14:27:00,
2013-02-10 07:32:00,24.4,17.1,29.84,East,87,2.0,4.0,73,0.00,,,0.00,meteohub,2013-02-10 14:32:00,
2013-02-10 07:37:00,25.0,17.6,29.85,ESE,104,5.0,5.0,73,0.00,,,0.00,meteohub,2013-02-10 14:37:00,
2013-02-10 07:42:00,25.2,17.8,29.85,ESE,107,2.0,7.0,73,0.00,,,0.00,meteohub,2013-02-10 14:42:00,
2013-02-10 07:47:00,25.2,17.8,29.85,ESE,108,1.0,7.0,73,0.00,,,0.00,meteohub,2013-02-10 14:47:00,
2013-02-10 07:52:00,25.2,18.0,29.86,ESE,108,2.0,7.0,74,0.00,,,0.00,meteohub,2013-02-10 14:52:00,
2013-02-10 07:57:00,25.2,18.0,29.86,ESE,107,4.0,7.0,74,0.00,,,0.00,meteohub,2013-02-10 14:57:00,
2013-02-10 08:02:00,25.3,18.1,29.86,ESE,109,1.0,6.0,74,0.00,,,0.00,meteohub,2013-02-10 15:02:00,
2013-02-10 08:07:00,25.3,18.1,29.86,ESE,109,2.0,6.0,74,0.00,,,0.00,meteohub,2013-02-10 15:07:00,
2013-02-10 08:12:00,25.7,18.9,29.87,ESE,109,1.0,6.0,75,0.00,,,0.00,meteohub,2013-02-10 15:12:00,
2013-02-10 08:17:00,25.9,18.7,29.87,ESE,109,1.0,5.0,74,0.00,,,0.00,meteohub,2013-02-10 15:17:00,
2013-02-10 08:27:00,26.2,19.0,29.88,ESE,109,2.0,5.0,74,0.00,,,0.00,meteohub,2013-02-10 15:27:00,
2013-02-10 08:32:00,26.6,19.0,29.88,ESE,109,2.0,5.0,73,0.00,,,0.00,meteohub,2013-02-10 15:32:00,
2013-02-10 08:37:00,26.8,19.0,29.88,SSE,153,1.0,6.0,72,0.00,,,0.00,meteohub,2013-02-10 15:37:00,
2013-02-10 08:42:00,27.0,18.9,29.89,SSE,153,1.0,6.0,71,0.00,,,0.00,meteohub,2013-02-10 15:42:00,
2013-02-10 08:47:00,27.3,19.2,29.89,SSE,153,0.0,6.0,71,0.00,,,0.00,meteohub,2013-02-10 15:47:00,
2013-02-10 08:57:00,27.7,18.5,29.90,SSE,153,0.0,5.0,68,0.00,,,0.00,meteohub,2013-02-10 15:57:00,
2013-02-10 09:07:00,28.0,18.9,29.90,SSE,153,4.0,6.0,68,0.00,,,0.00,meteohub,2013-02-10 16:07:00,
2013-02-10 09:12:00,28.2,18.7,29.90,SSE,153,0.0,6.0,67,0.00,,,0.00,meteohub,2013-02-10 16:12:00,
2013-02-10 09:22:00,28.4,17.4,29.91,SSE,153,0.0,5.0,63,0.00,,,0.00,meteohub,2013-02-10 16:22:00,
2013-02-10 09:27:00,28.6,18.3,29.91,SE,142,4.0,4.0,65,0.00,,,0.00,meteohub,2013-02-10 16:27:00,
2013-02-10 09:32:00,28.8,18.1,29.91,SE,146,5.0,6.0,64,0.00,,,0.00,meteohub,2013-02-10 16:32:00,
2013-02-10 09:37:00,28.8,16.7,29.91,SSE,156,2.0,7.0,60,0.00,,,0.00,meteohub,2013-02-10 16:37:00,
2013-02-10 09:42:00,28.8,16.7,29.92,ESE,117,4.0,7.0,60,0.00,,,0.00,meteohub,2013-02-10 16:42:00,
2013-02-10 09:52:00,29.1,15.8,29.92,SSE,153,5.0,8.0,57,0.00,,,0.00,meteohub,2013-02-10 16:52:00,
2013-02-10 09:57:00,29.3,16.3,29.92,SSE,153,1.0,8.0,58,0.00,,,0.00,meteohub,2013-02-10 16:57:00,
2013-02-10 10:02:00,29.8,16.5,29.93,SSE,156,4.0,5.0,57,0.00,,,0.00,meteohub,2013-02-10 17:02:00,
2013-02-10 10:07:00,30.4,15.8,29.93,SSE,156,0.0,6.0,54,0.00,,,0.00,meteohub,2013-02-10 17:07:00,
2013-02-10 10:12:00,30.7,15.6,29.93,SSE,156,0.0,6.0,53,0.00,,,0.00,meteohub,2013-02-10 17:12:00,
2013-02-10 10:17:00,30.9,15.8,29.93,SSE,156,0.0,6.0,53,0.00,,,0.00,meteohub,2013-02-10 17:17:00,
2013-02-10 10:27:00,31.8,16.2,29.93,SSE,156,0.0,4.0,52,0.00,,,0.00,meteohub,2013-02-10 17:27:00,
2013-02-10 10:32:00,32.4,15.3,29.94,SSE,156,0.0,4.0,49,0.00,,,0.00,meteohub,2013-02-10 17:32:00,
2013-02-10 10:42:00,32.7,16.5,29.94,SSW,204,3.0,5.0,51,0.00,,,0.00,meteohub,2013-02-10 17:42:00,
2013-02-10 10:52:00,32.7,17.1,29.94,SSW,213,1.0,7.0,52,0.01,,,0.01,meteohub,2013-02-10 17:52:00,
2013-02-10 10:57:00,32.9,17.2,29.94,WSW,245,3.0,7.0,52,0.01,,,0.01,meteohub,2013-02-10 17:57:00,
2013-02-10 11:02:00,32.9,17.2,29.94,WSW,237,4.0,7.0,52,0.01,,,0.01,meteohub,2013-02-10 18:02:00,
2013-02-10 11:07:00,33.4,17.8,29.94,SSW,205,2.0,7.0,52,0.01,,,0.01,meteohub,2013-02-10 18:07:00,
2013-02-10 11:12:00,33.8,16.2,29.94,SW,220,4.0,7.0,48,0.01,,,0.01,meteohub,2013-02-10 18:12:00,
2013-02-10 11:17:00,34.0,15.8,29.94,SSW,200,4.0,7.0,47,0.01,,,0.01,meteohub,2013-02-10 18:17:00,
2013-02-10 11:22:00,33.8,16.2,29.94,SW,233,3.0,7.0,48,0.01,,,0.01,meteohub,2013-02-10 18:22:00,
2013-02-10 11:27:00,34.0,15.8,29.94,SW,235,1.0,7.0,47,0.02,,,0.02,meteohub,2013-02-10 18:27:00,
2013-02-10 11:32:00,34.3,17.2,29.94,SW,235,0.0,7.0,49,0.02,,,0.02,meteohub,2013-02-10 18:32:00,
2013-02-10 11:37:00,34.0,14.9,29.94,SSE,161,0.0,7.0,45,0.03,,,0.03,meteohub,2013-02-10 18:37:00,
2013-02-10 11:42:00,33.8,16.7,29.93,SSE,162,4.0,6.0,49,0.03,,,0.03,meteohub,2013-02-10 18:42:00,
2013-02-10 11:47:00,34.3,17.2,29.93,WSW,253,3.0,6.0,49,0.02,,,0.03,meteohub,2013-02-10 18:47:00,
2013-02-10 11:52:00,34.7,17.1,29.94,WSW,254,3.0,7.0,48,0.03,,,0.04,meteohub,2013-02-10 18:52:00,
2013-02-10 11:57:00,34.3,16.7,29.93,WNW,301,4.0,14.0,48,0.03,,,0.04,meteohub,2013-02-10 18:57:00,
2013-02-10 12:02:00,34.3,18.5,29.93,SW,223,9.0,14.0,52,0.03,,,0.04,meteohub,2013-02-10 19:02:00,
2013-02-10 12:07:00,34.0,16.3,29.93,WSW,251,2.0,14.0,48,0.03,,,0.04,meteohub,2013-02-10 19:07:00,
2013-02-10 12:12:00,33.8,17.1,29.93,WSW,251,3.0,10.0,50,0.03,,,0.04,meteohub,2013-02-10 19:12:00,
2013-02-10 12:17:00,34.0,17.8,29.92,SW,230,6.0,10.0,51,0.03,,,0.04,meteohub,2013-02-10 19:17:00,
2013-02-10 12:27:00,34.5,16.3,29.92,WSW,238,2.0,9.0,47,0.02,,,0.04,meteohub,2013-02-10 19:27:00,
2013-02-10 12:32:00,34.7,16.5,29.92,SW,217,3.0,7.0,47,0.02,,,0.04,meteohub,2013-02-10 19:32:00,
2013-02-10 12:37:00,34.9,16.7,29.92,WSW,250,4.0,7.0,47,0.01,,,0.04,meteohub,2013-02-10 19:37:00,
2013-02-10 12:42:00,34.7,16.5,29.92,SSW,211,4.0,9.0,47,0.01,,,0.04,meteohub,2013-02-10 19:42:00,
2013-02-10 12:47:00,34.5,16.3,29.92,SW,223,4.0,11.0,47,0.01,,,0.04,meteohub,2013-02-10 19:47:00,
2013-02-10 12:52:00,34.3,15.6,29.92,SW,217,3.0,11.0,46,0.00,,,0.04,meteohub,2013-02-10 19:52:00,
2013-02-10 12:57:00,34.3,15.3,29.92,WSW,241,3.0,11.0,45,0.00,,,0.04,meteohub,2013-02-10 19:57:00,
2013-02-10 13:02:00,34.3,14.2,29.92,SW,227,7.0,8.0,43,0.00,,,0.04,meteohub,2013-02-10 20:02:00,
2013-02-10 13:07:00,34.3,15.6,29.92,West,281,7.0,9.0,46,0.00,,,0.04,meteohub,2013-02-10 20:07:00,
2013-02-10 13:12:00,34.3,14.7,29.92,SSW,209,3.0,9.0,44,0.00,,,0.04,meteohub,2013-02-10 20:12:00,
2013-02-10 13:17:00,34.3,14.2,29.93,SSW,210,2.0,9.0,43,0.00,,,0.04,meteohub,2013-02-10 20:17:00,
2013-02-10 13:22:00,34.2,13.5,29.93,NE,46,1.0,8.0,42,0.00,,,0.04,meteohub,2013-02-10 20:22:00,
2013-02-10 13:27:00,33.6,7.5,29.93,NE,34,2.0,7.0,33,0.00,,,0.04,meteohub,2013-02-10 20:27:00,
2013-02-10 13:32:00,33.4,9.3,29.93,NE,50,3.0,10.0,36,0.00,,,0.04,meteohub,2013-02-10 20:32:00,
2013-02-10 13:37:00,33.1,8.4,29.93,North,0,8.0,10.0,35,0.00,,,0.04,meteohub,2013-02-10 20:37:00,
2013-02-10 13:42:00,32.7,9.3,29.94,North,0,6.0,11.0,37,0.00,,,0.04,meteohub,2013-02-10 20:42:00,
2013-02-10 13:47:00,32.4,9.5,29.94,NNW,330,6.0,14.0,38,0.00,,,0.04,meteohub,2013-02-10 20:47:00,
2013-02-10 13:52:00,32.2,10.0,29.94,NNE,21,9.0,14.0,39,0.00,,,0.04,meteohub,2013-02-10 20:52:00,
2013-02-10 13:57:00,32.2,9.5,29.94,NNW,339,4.0,11.0,38,0.00,,,0.04,meteohub,2013-02-10 20:57:00,
2013-02-10 14:02:00,32.4,10.8,29.94,NW,316,3.0,11.0,40,0.00,,,0.04,meteohub,2013-02-10 21:02:00,
2013-02-10 14:07:00,32.5,10.9,29.94,WSW,243,5.0,11.0,40,0.00,,,0.04,meteohub,2013-02-10 21:07:00,
2013-02-10 14:12:00,32.7,9.9,29.94,WSW,248,3.0,7.0,38,0.00,,,0.04,meteohub,2013-02-10 21:12:00,
2013-02-10 14:17:00,33.3,10.9,29.94,West,279,6.0,9.0,39,0.00,,,0.04,meteohub,2013-02-10 21:17:00,
2013-02-10 14:22:00,33.6,9.0,29.94,West,281,4.0,9.0,35,0.00,,,0.04,meteohub,2013-02-10 21:22:00,
2013-02-10 14:27:00,34.2,10.0,29.94,NNW,332,3.0,9.0,36,0.00,,,0.04,meteohub,2013-02-10 21:27:00,
2013-02-10 14:32:00,34.3,7.5,29.94,NW,314,2.0,8.0,32,0.00,,,0.04,meteohub,2013-02-10 21:32:00,
2013-02-10 14:37:00,34.3,8.2,29.94,WNW,285,1.0,8.0,33,0.00,,,0.04,meteohub,2013-02-10 21:37:00,
2013-02-10 14:42:00,34.5,7.7,29.94,WSW,242,3.0,8.0,32,0.00,,,0.04,meteohub,2013-02-10 21:42:00,
2013-02-10 14:47:00,34.7,7.2,29.95,WSW,242,1.0,8.0,31,0.00,,,0.04,meteohub,2013-02-10 21:47:00,
2013-02-10 14:52:00,34.5,9.0,29.95,WNW,300,2.0,6.0,34,0.00,,,0.04,meteohub,2013-02-10 21:52:00,
2013-02-10 14:57:00,34.3,6.8,29.96,NNE,24,3.0,8.0,31,0.00,,,0.04,meteohub,2013-02-10 21:57:00,
2013-02-10 15:02:00,33.4,6.1,29.96,East,96,5.0,8.0,31,0.00,,,0.04,meteohub,2013-02-10 22:02:00,
2013-02-10 15:07:00,32.9,4.8,29.96,ENE,73,3.0,10.0,30,0.00,,,0.04,meteohub,2013-02-10 22:07:00,
2013-02-10 15:12:00,32.7,6.8,29.96,ENE,73,2.0,10.0,33,0.00,,,0.04,meteohub,2013-02-10 22:12:00,
2013-02-10 15:17:00,32.9,5.5,29.96,ENE,69,3.0,10.0,31,0.00,,,0.04,meteohub,2013-02-10 22:17:00,
2013-02-10 15:22:00,33.1,6.4,29.96,ENE,59,5.0,6.0,32,0.00,,,0.04,meteohub,2013-02-10 22:22:00,
2013-02-10 15:27:00,33.3,5.9,29.97,NNE,13,7.0,7.0,31,0.00,,,0.04,meteohub,2013-02-10 22:27:00,
2013-02-10 15:32:00,33.1,6.4,29.97,NNE,15,2.0,9.0,32,0.00,,,0.04,meteohub,2013-02-10 22:32:00,
2013-02-10 15:37:00,33.3,7.3,29.97,ENE,65,7.0,9.0,33,0.00,,,0.04,meteohub,2013-02-10 22:37:00,
2013-02-10 15:42:00,32.9,6.3,29.97,WNW,300,5.0,12.0,32,0.00,,,0.04,meteohub,2013-02-10 22:42:00,
2013-02-10 15:47:00,32.9,6.3,29.97,NNE,28,3.0,12.0,32,0.00,,,0.04,meteohub,2013-02-10 22:47:00,
2013-02-10 15:52:00,33.1,6.4,29.97,ENE,76,3.0,12.0,32,0.00,,,0.04,meteohub,2013-02-10 22:52:00,
2013-02-10 15:57:00,33.1,6.4,29.98,North,0,8.0,11.0,32,0.00,,,0.04,meteohub,2013-02-10 22:57:00,
2013-02-10 16:02:00,32.9,6.3,29.98,NNE,19,5.0,11.0,32,0.00,,,0.04,meteohub,2013-02-10 23:02:00,
2013-02-10 16:07:00,32.7,5.4,29.98,North,0,9.0,11.0,31,0.00,,,0.04,meteohub,2013-02-10 23:07:00,
2013-02-10 16:12:00,32.7,7.5,29.98,NNE,24,6.0,11.0,34,0.00,,,0.04,meteohub,2013-02-10 23:12:00,
2013-02-10 16:17:00,32.4,7.2,29.99,ENE,72,5.0,11.0,34,0.00,,,0.04,meteohub,2013-02-10 23:17:00,
2013-02-10 16:27:00,31.8,6.6,29.99,ENE,78,3.0,12.0,34,0.00,,,0.04,meteohub,2013-02-10 23:27:00,
2013-02-10 16:32:00,31.6,5.9,29.99,NE,42,5.0,12.0,33,0.00,,,0.04,meteohub,2013-02-10 23:32:00,
2013-02-10 16:37:00,31.5,5.7,29.99,ENE,76,0.0,12.0,33,0.00,,,0.04,meteohub,2013-02-10 23:37:00,
2013-02-10 16:42:00,31.5,6.3,29.99,ENE,74,2.0,8.0,34,0.00,,,0.04,meteohub,2013-02-10 23:42:00,
2013-02-10 16:47:00,31.3,6.8,29.99,ENE,74,1.0,8.0,35,0.00,,,0.04,meteohub,2013-02-10 23:47:00,
2013-02-10 16:52:00,31.3,6.8,30.00,ENE,74,1.0,4.0,35,0.00,,,0.04,meteohub,2013-02-10 23:52:00,
2013-02-10 16:57:00,31.3,6.8,30.00,ENE,74,2.0,4.0,35,0.00,,,0.04,meteohub,2013-02-10 23:57:00,
2013-02-10 17:02:00,30.9,6.4,30.00,ENE,74,1.0,4.0,35,0.00,,,0.04,meteohub,2013-02-11 00:02:00,
2013-02-10 17:07:00,30.9,6.4,30.00,ENE,74,0.0,4.0,35,0.00,,,0.04,meteohub,2013-02-11 00:07:00,
2013-02-10 17:12:00,30.7,6.3,30.00,ENE,74,3.0,4.0,35,0.00,,,0.04,meteohub,2013-02-11 00:12:00,
2013-02-10 17:17:00,30.6,6.1,30.01,NE,35,2.0,5.0,35,0.00,,,0.04,meteohub,2013-02-11 00:17:00,
2013-02-10 17:22:00,30.4,6.1,30.01,NNE,26,3.0,5.0,35,0.00,,,0.04,meteohub,2013-02-11 00:22:00,
2013-02-10 17:27:00,30.0,6.3,30.02,NNE,26,2.0,5.0,36,0.00,,,0.04,meteohub,2013-02-11 00:27:00,
2013-02-10 17:32:00,29.8,6.1,30.02,NNE,18,1.0,5.0,36,0.00,,,0.04,meteohub,2013-02-11 00:32:00,
2013-02-10 17:37:00,29.7,7.2,30.02,NNE,30,5.0,8.0,38,0.00,,,0.04,meteohub,2013-02-11 00:37:00,
2013-02-10 17:42:00,29.5,6.4,30.03,NE,34,3.0,8.0,37,0.00,,,0.04,meteohub,2013-02-11 00:42:00,
2013-02-10 17:47:00,29.5,6.4,30.03,NE,34,2.0,8.0,37,0.00,,,0.04,meteohub,2013-02-11 00:47:00,
2013-02-10 17:52:00,29.3,6.8,30.03,NE,34,1.0,6.0,38,0.00,,,0.04,meteohub,2013-02-11 00:52:00,
2013-02-10 17:57:00,29.1,6.6,30.03,NE,34,3.0,6.0,38,0.00,,,0.04,meteohub,2013-02-11 00:57:00,
2013-02-10 18:02:00,28.8,8.6,30.03,NNE,15,6.0,6.0,42,0.00,,,0.04,meteohub,2013-02-11 01:02:00,
2013-02-10 18:07:00,28.6,9.9,30.04,NNE,25,5.0,10.0,45,0.00,,,0.04,meteohub,2013-02-11 01:07:00,
2013-02-10 18:12:00,28.2,11.5,30.04,NE,34,4.0,10.0,49,0.00,,,0.04,meteohub,2013-02-11 01:12:00,
2013-02-10 18:17:00,27.9,11.7,30.05,NE,47,3.0,10.0,50,0.00,,,0.04,meteohub,2013-02-11 01:17:00,
2013-02-10 18:22:00,27.7,11.8,30.05,ENE,60,4.0,9.0,51,0.00,,,0.04,meteohub,2013-02-11 01:22:00,
2013-02-10 18:27:00,27.7,12.4,30.06,NE,48,1.0,7.0,52,0.00,,,0.04,meteohub,2013-02-11 01:27:00,
2013-02-10 18:32:00,27.5,12.2,30.06,ENE,63,1.0,7.0,52,0.00,,,0.04,meteohub,2013-02-11 01:32:00,
2013-02-10 18:37:00,27.5,12.2,30.07,ENE,64,2.0,7.0,52,0.00,,,0.04,meteohub,2013-02-11 01:37:00,
2013-02-10 18:42:00,27.3,12.0,30.07,NE,44,3.0,7.0,52,0.00,,,0.04,meteohub,2013-02-11 01:42:00,
2013-02-10 18:47:00,27.0,11.7,30.07,ENE,61,3.0,5.0,52,0.00,,,0.04,meteohub,2013-02-11 01:47:00,
2013-02-10 18:52:00,26.8,11.5,30.07,NE,54,6.0,7.0,52,0.00,,,0.04,meteohub,2013-02-11 01:52:00,
2013-02-10 18:57:00,26.4,11.1,30.08,ENE,63,4.0,7.0,52,0.00,,,0.04,meteohub,2013-02-11 01:57:00,
2013-02-10 19:02:00,26.1,10.8,30.08,NE,56,5.0,8.0,52,0.00,,,0.04,meteohub,2013-02-11 02:02:00,
2013-02-10 19:07:00,25.7,11.3,30.08,East,80,4.0,8.0,54,0.00,,,0.04,meteohub,2013-02-11 02:07:00,
2013-02-10 19:12:00,25.3,10.9,30.09,East,80,2.0,8.0,54,0.00,,,0.04,meteohub,2013-02-11 02:12:00,
2013-02-10 19:17:00,25.2,11.3,30.09,NE,55,6.0,8.0,55,0.00,,,0.04,meteohub,2013-02-11 02:17:00,
2013-02-10 19:22:00,25.0,11.1,30.09,NNE,32,3.0,8.0,55,0.00,,,0.04,meteohub,2013-02-11 02:22:00,
2013-02-10 19:27:00,25.0,11.1,30.09,NE,38,0.0,6.0,55,0.00,,,0.04,meteohub,2013-02-11 02:27:00,
2013-02-10 19:32:00,24.8,10.9,30.09,NE,38,1.0,6.0,55,0.00,,,0.04,meteohub,2013-02-11 02:32:00,
2013-02-10 19:37:00,24.6,11.1,30.10,NE,50,4.0,4.0,56,0.00,,,0.04,meteohub,2013-02-11 02:37:00,
2013-02-10 19:42:00,24.4,10.9,30.10,East,101,5.0,5.0,56,0.00,,,0.04,meteohub,2013-02-11 02:42:00,
2013-02-10 19:47:00,24.3,10.8,30.10,ESE,103,5.0,7.0,56,0.00,,,0.04,meteohub,2013-02-11 02:47:00,
2013-02-10 19:52:00,24.1,10.6,30.10,ESE,109,4.0,7.0,56,0.00,,,0.04,meteohub,2013-02-11 02:52:00,
2013-02-10 19:57:00,24.1,10.6,30.11,East,80,3.0,8.0,56,0.00,,,0.04,meteohub,2013-02-11 02:57:00,
2013-02-10 20:02:00,23.9,10.4,30.11,East,84,3.0,8.0,56,0.00,,,0.04,meteohub,2013-02-11 03:02:00,
2013-02-10 20:07:00,23.9,10.9,30.11,East,88,2.0,7.0,57,0.00,,,0.04,meteohub,2013-02-11 03:07:00,
2013-02-10 20:12:00,23.7,10.4,30.12,East,86,4.0,7.0,56,0.00,,,0.04,meteohub,2013-02-11 03:12:00,
2013-02-10 20:17:00,23.5,10.2,30.12,East,79,3.0,7.0,56,0.00,,,0.04,meteohub,2013-02-11 03:17:00,
2013-02-10 20:22:00,23.5,10.2,30.12,East,79,4.0,7.0,56,0.00,,,0.04,meteohub,2013-02-11 03:22:00,
2013-02-10 20:27:00,23.5,10.6,30.12,East,84,2.0,7.0,57,0.00,,,0.04,meteohub,2013-02-11 03:27:00,
2013-02-10 20:32:00,23.5,10.6,30.12,East,87,2.0,6.0,57,0.00,,,0.04,meteohub,2013-02-11 03:32:00,
2013-02-10 20:37:00,23.4,10.4,30.13,East,90,4.0,6.0,57,0.00,,,0.04,meteohub,2013-02-11 03:37:00,
2013-02-10 20:42:00,23.4,10.4,30.13,East,79,2.0,7.0,57,0.00,,,0.04,meteohub,2013-02-11 03:42:00,
2013-02-10 20:47:00,23.4,10.4,30.13,East,79,3.0,7.0,57,0.00,,,0.04,meteohub,2013-02-11 03:47:00,
2013-02-10 20:52:00,23.2,10.2,30.13,East,80,4.0,7.0,57,0.00,,,0.04,meteohub,2013-02-11 03:52:00,
2013-02-10 20:57:00,23.2,10.2,30.13,ENE,68,4.0,5.0,57,0.00,,,0.04,meteohub,2013-02-11 03:57:00,
2013-02-10 21:02:00,23.0,10.0,30.13,ENE,71,2.0,5.0,57,0.00,,,0.04,meteohub,2013-02-11 04:02:00,
2013-02-10 21:07:00,23.0,10.4,30.13,ENE,71,0.0,5.0,58,0.00,,,0.04,meteohub,2013-02-11 04:07:00,
2013-02-10 21:12:00,23.0,10.4,30.14,ENE,71,0.0,5.0,58,0.00,,,0.04,meteohub,2013-02-11 04:12:00,
2013-02-10 21:17:00,22.8,10.6,30.14,ENE,71,1.0,4.0,59,0.00,,,0.04,meteohub,2013-02-11 04:17:00,
2013-02-10 21:22:00,22.8,10.6,30.14,East,93,2.0,3.0,59,0.00,,,0.04,meteohub,2013-02-11 04:22:00,
2013-02-10 21:27:00,22.8,10.6,30.14,East,93,1.0,6.0,59,0.00,,,0.04,meteohub,2013-02-11 04:27:00,
2013-02-10 21:32:00,22.8,10.6,30.14,East,93,2.0,6.0,59,0.00,,,0.04,meteohub,2013-02-11 04:32:00,
2013-02-10 21:37:00,23.0,10.8,30.14,East,94,2.0,6.0,59,0.00,,,0.04,meteohub,2013-02-11 04:37:00,
2013-02-10 21:42:00,23.0,10.8,30.15,East,94,1.0,6.0,59,0.00,,,0.04,meteohub,2013-02-11 04:42:00,
2013-02-10 21:47:00,23.0,12.6,30.15,SE,136,7.0,8.0,64,0.00,,,0.04,meteohub,2013-02-11 04:47:00,
2013-02-10 21:52:00,22.8,13.8,30.15,SSE,157,6.0,8.0,68,0.00,,,0.04,meteohub,2013-02-11 04:52:00,
2013-02-10 21:57:00,22.5,13.8,30.15,SSE,157,1.0,8.0,69,0.00,,,0.04,meteohub,2013-02-11 04:57:00,
2013-02-10 22:02:00,22.5,14.2,30.15,SSE,157,1.0,8.0,70,0.00,,,0.04,meteohub,2013-02-11 05:02:00,
2013-02-10 22:07:00,22.5,14.2,30.15,SSE,157,0.0,7.0,70,0.00,,,0.04,meteohub,2013-02-11 05:07:00,
2013-02-10 22:12:00,22.3,14.4,30.15,SSE,157,1.0,5.0,71,0.00,,,0.04,meteohub,2013-02-11 05:12:00,
2013-02-10 22:17:00,22.3,14.7,30.15,SSE,157,0.0,5.0,72,0.00,,,0.04,meteohub,2013-02-11 05:17:00,
2013-02-10 22:22:00,22.3,14.9,30.15,SSE,157,1.0,5.0,73,0.00,,,0.04,meteohub,2013-02-11 05:22:00,
2013-02-10 22:27:00,22.3,15.3,30.15,SSE,157,2.0,2.0,74,0.00,,,0.04,meteohub,2013-02-11 05:27:00,
2013-02-10 22:32:00,22.3,14.4,30.15,East,94,5.0,6.0,71,0.00,,,0.04,meteohub,2013-02-11 05:32:00,
2013-02-10 22:37:00,22.1,11.8,30.15,East,92,7.0,10.0,64,0.00,,,0.04,meteohub,2013-02-11 05:37:00,
2013-02-10 22:42:00,21.9,11.7,30.15,East,94,6.0,10.0,64,0.00,,,0.04,meteohub,2013-02-11 05:42:00,
2013-02-10 22:47:00,21.7,11.1,30.16,East,95,6.0,11.0,63,0.00,,,0.04,meteohub,2013-02-11 05:47:00,
2013-02-10 22:52:00,21.7,11.5,30.16,East,99,7.0,11.0,64,0.00,,,0.04,meteohub,2013-02-11 05:52:00,
2013-02-10 23:02:00,21.4,11.1,30.17,East,86,4.0,12.0,64,0.00,,,0.04,meteohub,2013-02-11 06:02:00,
2013-02-10 23:07:00,21.4,11.1,30.17,ESE,117,4.0,12.0,64,0.00,,,0.04,meteohub,2013-02-11 06:07:00,
2013-02-10 23:12:00,21.4,11.1,30.17,East,94,5.0,11.0,64,0.00,,,0.04,meteohub,2013-02-11 06:12:00,
2013-02-10 23:17:00,21.4,11.1,30.17,East,92,4.0,9.0,64,0.00,,,0.04,meteohub,2013-02-11 06:17:00,
2013-02-10 23:22:00,21.0,10.8,30.17,East,96,7.0,9.0,64,0.00,,,0.04,meteohub,2013-02-11 06:22:00,
2013-02-10 23:27:00,21.0,10.8,30.18,ESE,108,5.0,8.0,64,0.00,,,0.04,meteohub,2013-02-11 06:27:00,
2013-02-10 23:32:00,21.0,10.8,30.18,ESE,104,5.0,8.0,64,0.00,,,0.04,meteohub,2013-02-11 06:32:00,
2013-02-10 23:37:00,21.0,10.8,30.18,ESE,102,4.0,9.0,64,0.00,,,0.04,meteohub,2013-02-11 06:37:00,
2013-02-10 23:47:00,21.0,10.8,30.18,East,100,0.0,9.0,64,0.00,,,0.04,meteohub,2013-02-11 06:47:00,
2013-02-10 23:52:00,21.0,10.8,30.18,East,100,1.0,5.0,64,0.00,,,0.04,meteohub,2013-02-11 06:52:00,